地図

経路データ

SID SEASON NUMBER BASIN SUBBASIN NAME ISO_TIME NATURE LAT LON WMO_WIND WMO_PRES WMO_AGENCY TRACK_TYPE DIST2LAND LANDFALL IFLAG USA_AGENCY USA_ATCF_ID USA_LAT USA_LON USA_RECORD USA_STATUS USA_WIND USA_PRES USA_SSHS USA_R34_NE USA_R34_SE USA_R34_SW USA_R34_NW USA_R50_NE USA_R50_SE USA_R50_SW USA_R50_NW USA_R64_NE USA_R64_SE USA_R64_SW USA_R64_NW USA_POCI USA_ROCI USA_RMW USA_EYE TOKYO_LAT TOKYO_LON TOKYO_GRADE TOKYO_WIND TOKYO_PRES TOKYO_R50_DIR TOKYO_R50_LONG TOKYO_R50_SHORT TOKYO_R30_DIR TOKYO_R30_LONG TOKYO_R30_SHORT TOKYO_LAND CMA_LAT CMA_LON CMA_CAT CMA_WIND CMA_PRES HKO_LAT HKO_LON HKO_CAT HKO_WIND HKO_PRES NEWDELHI_LAT NEWDELHI_LON NEWDELHI_GRADE NEWDELHI_WIND NEWDELHI_PRES NEWDELHI_CI NEWDELHI_DP NEWDELHI_POCI REUNION_LAT REUNION_LON REUNION_TYPE REUNION_WIND REUNION_PRES REUNION_TNUM REUNION_CI REUNION_RMW REUNION_R34_NE REUNION_R34_SE REUNION_R34_SW REUNION_R34_NW REUNION_R50_NE REUNION_R50_SE REUNION_R50_SW REUNION_R50_NW REUNION_R64_NE REUNION_R64_SE REUNION_R64_SW REUNION_R64_NW BOM_LAT BOM_LON BOM_TYPE BOM_WIND BOM_PRES BOM_TNUM BOM_CI BOM_RMW BOM_R34_NE BOM_R34_SE BOM_R34_SW BOM_R34_NW BOM_R50_NE BOM_R50_SE BOM_R50_SW BOM_R50_NW BOM_R64_NE BOM_R64_SE BOM_R64_SW BOM_R64_NW BOM_ROCI BOM_POCI BOM_EYE BOM_POS_METHOD BOM_PRES_METHOD NADI_LAT NADI_LON NADI_CAT NADI_WIND NADI_PRES WELLINGTON_LAT WELLINGTON_LON WELLINGTON_WIND WELLINGTON_PRES DS824_LAT DS824_LON DS824_STAGE DS824_WIND DS824_PRES TD9636_LAT TD9636_LON TD9636_STAGE TD9636_WIND TD9636_PRES TD9635_LAT TD9635_LON TD9635_WIND TD9635_PRES TD9635_ROCI NEUMANN_LAT NEUMANN_LON NEUMANN_CLASS NEUMANN_WIND NEUMANN_PRES MLC_LAT MLC_LON MLC_CLASS MLC_WIND MLC_PRES USA_GUST BOM_GUST BOM_GUST_PER REUNION_GUST REUNION_GUST_PER USA_SEAHGT USA_SEARAD_NE USA_SEARAD_SE USA_SEARAD_SW USA_SEARAD_NW STORM_SPEED STORM_DIR
2020114N10252 2020 23 EP MM NOT_NAMED 2020-04-22 12:00:00 NR 9.80000 -108.200 PROVISIONAL 1078 1078 O_____________ nhc_working_bt EP012020 9.80000 -108.200 DB 20 1009 -3 1010 300 60 10 269
2020114N10252 2020 23 EP MM NOT_NAMED 2020-04-22 15:00:00 NR 9.79019 -108.713 PROVISIONAL 1104 1104 P_____________ EP012020 9.79019 -108.713 DB 20 1009 -3 1010 300 60 10 270
2020114N10252 2020 23 EP MM NOT_NAMED 2020-04-22 18:00:00 NR 9.80000 -109.200 PROVISIONAL 1132 1132 O_____________ nhc_working_bt EP012020 9.80000 -109.200 DB 20 1009 -3 1010 300 60 9 273
2020114N10252 2020 23 EP MM NOT_NAMED 2020-04-22 21:00:00 NR 9.84238 -109.650 PROVISIONAL 1156 1153 P_____________ EP012020 9.84238 -109.650 DB 20 1009 -3 1010 300 60 9 276
2020114N10252 2020 23 EP MM NOT_NAMED 2020-04-23 00:00:00 NR 9.90000 -110.100 PROVISIONAL 1179 1179 O_____________ nhc_working_bt EP012020 9.90000 -110.100 DB 20 1009 -3 1010 300 60 9 276
2020114N10252 2020 23 EP MM NOT_NAMED 2020-04-23 03:00:00 NR 9.94249 -110.600 PROVISIONAL 1212 1209 P_____________ EP012020 9.94249 -110.600 DB 20 1009 -3 1010 300 60 10 276
2020114N10252 2020 23 EP MM NOT_NAMED 2020-04-23 06:00:00 NR 10.0000 -111.100 PROVISIONAL 1232 1232 O_____________ nhc_working_bt EP012020 10.0000 -111.100 DB 20 1009 -3 1010 300 60 9 279
2020114N10252 2020 23 EP MM NOT_NAMED 2020-04-23 09:00:00 NR 10.0849 -111.550 PROVISIONAL 1253 1253 P_____________ EP012020 10.0849 -111.550 DB 22 1008 -3 1010 300 60 9 283
2020114N10252 2020 23 EP MM NOT_NAMED 2020-04-23 12:00:00 NR 10.2000 -112.000 PROVISIONAL 1270 1270 O_____________ nhc_working_bt EP012020 10.2000 -112.000 DB 25 1008 -3 1010 300 60 10 285
2020114N10252 2020 23 EP MM NOT_NAMED 2020-04-23 15:00:00 NR 10.3501 -112.545 PROVISIONAL 1286 1286 P_____________ EP012020 10.3501 -112.545 DB 25 1008 -3 1010 300 60 10 287
2020114N10252 2020 23 EP MM NOT_NAMED 2020-04-23 18:00:00 NR 10.5000 -113.000 PROVISIONAL 1313 1311 O_____________ nhc_working_bt EP012020 10.5000 -113.000 DB 25 1008 -3 1010 300 60 7 291
2020114N10252 2020 23 EP MM NOT_NAMED 2020-04-23 21:00:00 NR 10.5923 -113.195 PROVISIONAL 1319 1318 P_____________ EP012020 10.5923 -113.195 DB 25 1008 -3 1010 300 60 4 304
2020114N10252 2020 23 EP MM NOT_NAMED 2020-04-24 00:00:00 NR 10.7000 -113.300 PROVISIONAL 1318 1317 O_____________ nhc_working_bt EP012020 10.7000 -113.300 DB 25 1008 -3 1010 300 60 4 314
2020114N10252 2020 23 EP MM NOT_NAMED 2020-04-24 03:00:00 NR 10.8625 -113.478 PROVISIONAL 1317 1316 P_____________ EP012020 10.8625 -113.478 DB 27 1008 -3 1010 300 60 6 315
2020114N10252 2020 23 EP MM NOT_NAMED 2020-04-24 06:00:00 NR 11.1000 -113.700 PROVISIONAL 1316 1307 O_____________ nhc_working_bt EP012020 11.1000 -113.700 DB 30 1008 -3 1010 300 60 8 318
2020114N10252 2020 23 EP MM NOT_NAMED 2020-04-24 09:00:00 NR 11.4275 -113.992 PROVISIONAL 1315 1306 P_____________ EP012020 11.4275 -113.992 DB 30 1007 -3 1009 270 50 9 320
2020114N10252 2020 23 EP MM NOT_NAMED 2020-04-24 12:00:00 NR 11.8000 -114.300 PROVISIONAL 1307 1298 O_____________ nhc_working_bt EP012020 11.8000 -114.300 DB 30 1007 -3 1009 240 40 9 322
2020114N10252 2020 23 EP MM NOT_NAMED 2020-04-24 15:00:00 NR 12.1650 -114.573 PROVISIONAL 1292 1269 P_____________ EP012020 12.1650 -114.573 DB 27 1007 -3 1009 240 40 9 325
2020114N10252 2020 23 EP MM NOT_NAMED 2020-04-24 18:00:00 NR 12.5000 -114.800 PROVISIONAL 1269 1243 O_____________ nhc_working_bt EP012020 12.5000 -114.800 DB 25 1007 -3 1009 240 40 40 7 328
2020114N10252 2020 23 EP MM NOT_NAMED 2020-04-24 21:00:00 NR 12.7724 -114.958 PROVISIONAL 1247 1231 P_____________ EP012020 12.7724 -114.958 DB 25 1007 -3 1009 240 40 6 330
2020114N10252 2020 23 EP MM NOT_NAMED 2020-04-25 00:00:00 NR 13.0000 -115.100 PROVISIONAL 1231 1216 O_____________ nhc_working_bt EP012020 13.0000 -115.100 DB 25 1007 -3 1009 240 40 5 324
2020114N10252 2020 23 EP MM NOT_NAMED 2020-04-25 03:00:00 NR 13.2075 -115.285 PROVISIONAL 1220 1205 P_____________ EP012020 13.2075 -115.285 DB 27 1007 -3 1009 240 40 6 316
2020114N10252 2020 23 EP MM NOT_NAMED 2020-04-25 06:00:00 NR 13.4000 -115.500 PROVISIONAL 1210 1201 O_____________ nhc_working_bt EP012020 13.4000 -115.500 DB 30 1007 -3 1009 240 40 6 312
2020114N10252 2020 23 EP MM NOT_NAMED 2020-04-25 09:00:00 NR 13.6000 -115.735 PROVISIONAL 1201 1192 P_____________ EP012020 13.6000 -115.735 DB 30 1006 -3 1009 220 40 6 316
2020114N10252 2020 23 EP MM NOT_NAMED 2020-04-25 12:00:00 TS 13.8333 -115.933 PROVISIONAL 1192 1185 O_____________ nhc_working_bt EP012020 13.8000 -116.000 TD 30 1006 -1 1010 200 40 40 7 310
2020114N10252 2020 23 EP MM NOT_NAMED 2020-04-25 15:00:00 TS 14.0201 -116.256 PROVISIONAL 1196 1187 P_____________ EP012020 14.0000 -116.293 TD 30 1006 -1 1010 200 40 7 300
2020114N10252 2020 23 EP MM NOT_NAMED 2020-04-25 18:00:00 TS 14.2000 -116.600 PROVISIONAL 1195 1190 O_____________ nhc_working_bt EP012020 14.2000 -116.600 TD 30 1006 -1 1010 200 40 40 7 301
2020114N10252 2020 23 EP MM NOT_NAMED 2020-04-25 21:00:00 TS 14.3949 -116.910 PROVISIONAL 1196 1191 P_____________ EP012020 14.4000 -116.900 TD 30 1006 -1 1010 200 40 7 305
2020114N10252 2020 23 EP MM NOT_NAMED 2020-04-26 00:00:00 TS 14.6000 -117.200 PROVISIONAL 1198 1194 O_____________ nhc_working_bt EP012020 14.6000 -117.200 TD 30 1006 -1 1010 200 40 40 7 305
2020114N10252 2020 23 EP MM NOT_NAMED 2020-04-26 03:00:00 TS 14.7924 -117.493 PROVISIONAL 1201 1198 P_____________ EP012020 14.7924 -117.493 TD 30 1006 -1 1010 200 40 7 305
2020114N10252 2020 23 EP MM NOT_NAMED 2020-04-26 06:00:00 TS 15.0000 -117.800 PROVISIONAL 1205 1203 O_____________ nhc_working_bt EP012020 15.0000 -117.800 TD 30 1006 -1 1010 200 40 40 8 305
2020114N10252 2020 23 EP MM NOT_NAMED 2020-04-26 09:00:00 TS 15.2350 -118.150 PROVISIONAL 1217 1208 P_____________ EP012020 15.2350 -118.150 TD 30 1006 -1 1010 200 40 8 307
2020114N10252 2020 23 EP MM NOT_NAMED 2020-04-26 12:00:00 TS 15.5000 -118.500 PROVISIONAL 1216 1215 O_____________ nhc_working_bt EP012020 15.5000 -118.500 TD 30 1006 -1 1010 200 40 40 9 311
2020114N10252 2020 23 EP MM NOT_NAMED 2020-04-26 15:00:00 TS 15.7925 -118.812 PROVISIONAL 1215 1206 P_____________ EP012020 15.7925 -118.812 TD 27 1006 -1 1010 200 40 8 316
2020114N10252 2020 23 EP MM NOT_NAMED 2020-04-26 18:00:00 DS 16.1000 -119.100 PROVISIONAL 1206 O_____________ nhc_working_bt EP012020 16.1000 -119.100 LO 25 1007 -3 1010 200 40 35 8 318

IBTrACS Databaseについて

本データベースは、米国NOAAが公開する1842年以降の世界の熱帯低気圧のベストトラックデータアーカイブInternational Best Track Archive for Climate Stewardship (IBTrACS)を、ウェブで閲覧しやすい形式に変換したものです。

最終更新日:2021-11-26